createdAt,value
2018-02-14T00:02:02.563Z,69.50
2018-02-14T00:04:30.184Z,69.50
2018-02-14T00:06:57.861Z,69.50
2018-02-14T00:09:25.496Z,69.60
2018-02-14T00:11:53.141Z,69.60
2018-02-14T00:14:20.709Z,69.60
2018-02-14T00:16:49.244Z,69.60
2018-02-14T00:19:16.868Z,69.60
2018-02-14T00:21:45.222Z,69.60
2018-02-14T00:24:12.810Z,69.60
2018-02-14T00:26:40.448Z,69.60
2018-02-14T00:29:08.116Z,69.50
2018-02-14T00:31:35.708Z,69.50
2018-02-14T00:34:03.348Z,69.60
2018-02-14T00:36:31.680Z,69.60
2018-02-14T00:38:59.245Z,69.40
2018-02-14T00:41:26.885Z,69.60
2018-02-14T00:43:54.506Z,69.40
2018-02-14T00:46:23.794Z,69.50
2018-02-14T00:48:51.369Z,69.40
2018-02-14T00:51:19.747Z,69.50
2018-02-14T00:53:48.076Z,69.50
2018-02-14T00:56:15.638Z,69.50
2018-02-14T00:58:43.307Z,69.40
2018-02-14T01:01:10.988Z,69.50
2018-02-14T01:03:38.576Z,69.40
2018-02-14T01:06:07.058Z,69.50
2018-02-14T01:08:35.396Z,69.50
2018-02-14T01:11:03.324Z,69.50
2018-02-14T01:13:30.945Z,69.50
2018-02-14T01:15:58.545Z,69.50
2018-02-14T01:18:26.118Z,69.50
2018-02-14T01:20:54.872Z,69.50
2018-02-14T01:23:24.572Z,69.60
2018-02-14T01:25:52.676Z,69.50
2018-02-14T01:28:20.237Z,69.50
2018-02-14T01:30:47.882Z,69.50
2018-02-14T01:33:16.281Z,69.50
2018-02-14T01:35:44.669Z,69.40
2018-02-14T01:38:12.296Z,69.50
2018-02-14T01:40:39.883Z,69.40
2018-02-14T01:43:07.529Z,69.50
2018-02-14T01:45:35.855Z,69.50
2018-02-14T01:48:03.440Z,69.50
2018-02-14T01:50:38.851Z,69.50
2018-02-14T01:53:06.496Z,69.50
2018-02-14T01:55:34.125Z,69.50
2018-02-14T01:58:01.687Z,69.40
2018-02-14T02:00:29.261Z,69.50
2018-02-14T02:02:57.626Z,69.60
2018-02-14T02:05:25.312Z,69.50
2018-02-14T02:10:27.413Z,69.50
2018-02-14T02:12:55.038Z,69.50
2018-02-14T02:15:24.479Z,70.30
2018-02-14T02:17:52.632Z,69.40
2018-02-14T02:20:20.982Z,69.50
2018-02-14T02:22:48.661Z,69.50
2018-02-14T02:25:16.364Z,69.40
2018-02-14T02:27:43.936Z,69.40
2018-02-14T02:30:11.506Z,69.40
2018-02-14T02:32:39.140Z,69.40
2018-02-14T02:35:06.701Z,69.40
2018-02-14T02:37:34.449Z,69.40
2018-02-14T02:40:14.796Z,69.40
2018-02-14T02:42:43.203Z,69.40
2018-02-14T02:45:11.037Z,69.40
2018-02-14T02:47:38.601Z,69.40
2018-02-14T02:50:06.205Z,69.40
2018-02-14T02:52:33.837Z,69.40
2018-02-14T02:55:02.200Z,69.40
2018-02-14T02:57:29.984Z,69.40
2018-02-14T02:59:58.322Z,69.40
2018-02-14T03:02:25.903Z,69.40
2018-02-14T03:04:54.652Z,69.40
2018-02-14T03:07:22.623Z,69.50
2018-02-14T03:09:50.193Z,69.40
2018-02-14T03:12:17.751Z,69.40
2018-02-14T03:14:45.367Z,69.50
2018-02-14T03:17:13.847Z,69.50
2018-02-14T03:19:42.232Z,69.30
2018-02-14T03:22:09.872Z,69.30
2018-02-14T03:24:37.493Z,69.40
2018-02-14T03:27:05.052Z,69.30
2018-02-14T03:29:32.670Z,69.40
2018-02-14T03:32:01.011Z,69.40
2018-02-14T03:34:28.580Z,69.40
2018-02-14T03:36:56.157Z,69.40
2018-02-14T03:39:24.572Z,70.30
2018-02-14T03:41:52.630Z,69.40
2018-02-14T03:44:20.212Z,69.40
2018-02-14T03:46:47.796Z,69.40
2018-02-14T03:49:15.394Z,69.40
2018-02-14T03:51:43.729Z,69.40
2018-02-14T03:54:11.349Z,69.40
2018-02-14T03:56:39.011Z,69.40
2018-02-14T03:59:06.590Z,69.40
2018-02-14T04:01:34.160Z,69.40
2018-02-14T04:04:01.739Z,69.40
2018-02-14T04:06:29.317Z,69.40
2018-02-14T04:08:57.008Z,69.40
2018-02-14T04:11:25.340Z,69.40
2018-02-14T04:13:53.394Z,69.40
2018-02-14T04:16:21.007Z,69.40
2018-02-14T04:18:48.691Z,69.40
2018-02-14T04:21:17.034Z,69.40
2018-02-14T04:23:44.737Z,69.40
2018-02-14T04:26:12.301Z,69.40
2018-02-14T04:28:39.883Z,69.30
2018-02-14T04:31:07.466Z,69.30
2018-02-14T04:33:35.095Z,69.30
2018-02-14T04:36:02.732Z,69.40
2018-02-14T04:38:30.320Z,69.30
2018-02-14T04:40:57.941Z,69.40
2018-02-14T04:43:25.609Z,69.30
2018-02-14T04:45:54.903Z,69.50
2018-02-14T04:48:22.563Z,69.40
2018-02-14T04:50:50.968Z,69.40
2018-02-14T04:53:19.309Z,69.40
2018-02-14T04:55:46.872Z,69.40
2018-02-14T04:58:14.453Z,69.40
2018-02-14T05:00:42.790Z,69.40
2018-02-14T05:03:10.428Z,69.40
2018-02-14T05:05:38.168Z,69.40
2018-02-14T05:08:06.542Z,69.40
2018-02-14T05:10:34.879Z,69.40
2018-02-14T05:13:02.490Z,69.40
2018-02-14T05:15:30.180Z,70.10
2018-02-14T05:17:57.778Z,69.40
2018-02-14T05:20:25.363Z,70.20
2018-02-14T05:22:52.962Z,69.40
2018-02-14T05:25:20.548Z,69.40
2018-02-14T05:27:48.164Z,69.40
2018-02-14T05:30:15.766Z,69.40
2018-02-14T05:32:43.371Z,69.40
2018-02-14T05:35:11.735Z,69.50
2018-02-14T05:37:40.211Z,69.70
2018-02-14T05:40:07.831Z,69.40
2018-02-14T05:42:35.433Z,69.30
2018-02-14T05:45:03.118Z,69.40
2018-02-14T05:47:31.497Z,69.40
2018-02-14T05:49:59.879Z,69.40
2018-02-14T05:52:27.518Z,69.40
2018-02-14T05:54:55.113Z,69.40
2018-02-14T05:57:23.706Z,69.40
2018-02-14T05:59:51.289Z,69.30
2018-02-14T06:02:18.886Z,69.30
2018-02-14T06:04:46.514Z,69.40
2018-02-14T06:07:14.121Z,69.40
2018-02-14T06:09:41.702Z,69.40
2018-02-14T06:12:10.023Z,69.40
2018-02-14T06:14:37.618Z,69.40
2018-02-14T06:17:05.182Z,69.40
2018-02-14T06:19:32.730Z,69.40
2018-02-14T06:22:00.286Z,69.40
2018-02-14T06:24:27.843Z,69.40
2018-02-14T06:26:55.408Z,69.40
2018-02-14T06:29:23.813Z,69.40
2018-02-14T06:31:51.540Z,69.30
2018-02-14T06:34:19.099Z,69.40
2018-02-14T06:36:47.671Z,69.40
2018-02-14T06:39:17.772Z,69.30
2018-02-14T06:41:45.382Z,69.30
2018-02-14T06:44:12.940Z,69.30
2018-02-14T06:46:41.300Z,69.30
2018-02-14T06:49:08.893Z,69.30
2018-02-14T06:51:36.448Z,69.30
2018-02-14T06:54:04.214Z,69.30
2018-02-14T06:56:32.557Z,69.30
2018-02-14T06:59:00.127Z,69.30
2018-02-14T07:01:27.674Z,69.30
2018-02-14T07:03:55.239Z,68.60
2018-02-14T07:06:22.809Z,69.30
2018-02-14T07:08:51.146Z,69.30
2018-02-14T07:11:18.707Z,69.30
2018-02-14T07:13:47.049Z,69.30
2018-02-14T07:16:15.302Z,69.30
2018-02-14T07:18:43.660Z,69.30
2018-02-14T07:21:11.233Z,69.30
2018-02-14T07:23:39.559Z,69.30
2018-02-14T07:26:07.114Z,69.30
2018-02-14T07:28:34.672Z,69.30
2018-02-14T07:31:02.229Z,69.30
2018-02-14T07:33:30.566Z,69.30
2018-02-14T07:35:58.117Z,69.30
2018-02-14T07:38:34.130Z,69.20
2018-02-14T07:41:01.710Z,69.20
2018-02-14T07:43:29.274Z,69.10
2018-02-14T07:45:56.954Z,69.10
2018-02-14T07:48:24.552Z,69.20
2018-02-14T07:50:52.127Z,69.20
2018-02-14T07:53:19.745Z,69.20
2018-02-14T07:55:47.447Z,69.40
2018-02-14T07:58:15.023Z,69.40
2018-02-14T08:00:43.339Z,69.30
2018-02-14T08:03:11.673Z,69.20
2018-02-14T08:05:39.379Z,69.20
2018-02-14T08:08:07.124Z,69.20
2018-02-14T08:10:34.773Z,69.20
2018-02-14T08:13:02.352Z,69.10
2018-02-14T08:15:29.934Z,69.30
2018-02-14T08:17:57.493Z,69.20
2018-02-14T08:20:26.525Z,69.20
2018-02-14T08:22:54.859Z,69.10
2018-02-14T08:25:22.430Z,69.10
2018-02-14T08:27:50.756Z,69.00
2018-02-14T08:30:18.431Z,68.90
2018-02-14T08:32:46.001Z,69.00
2018-02-14T08:35:13.576Z,69.00
2018-02-14T08:37:41.130Z,69.00
2018-02-14T08:40:08.691Z,68.80
2018-02-14T08:42:36.271Z,68.80
2018-02-14T08:45:03.834Z,68.70
2018-02-14T08:47:31.401Z,69.40
2018-02-14T08:49:58.971Z,68.60
2018-02-14T08:52:26.856Z,68.50
2018-02-14T08:54:54.433Z,68.40
2018-02-14T08:57:22.803Z,68.40
2018-02-14T08:59:50.362Z,68.30
2018-02-14T09:02:17.944Z,68.20
2018-02-14T09:04:45.531Z,68.30
2018-02-14T09:07:13.093Z,68.50
2018-02-14T09:09:40.655Z,68.20
2018-02-14T09:12:08.232Z,67.10
2018-02-14T09:14:35.790Z,67.10
2018-02-14T09:17:04.125Z,67.10
2018-02-14T09:19:32.450Z,67.10
2018-02-14T09:22:00.786Z,67.10
2018-02-14T09:24:29.124Z,67.10
2018-02-14T09:26:56.687Z,67.00
2018-02-14T09:29:24.266Z,67.00
2018-02-14T09:31:51.840Z,67.00
2018-02-14T09:34:19.410Z,67.00
2018-02-14T09:36:47.052Z,67.10
2018-02-14T09:39:14.637Z,67.00
2018-02-14T09:41:42.200Z,67.00
2018-02-14T09:44:09.768Z,67.20
2018-02-14T09:46:37.355Z,67.90
2018-02-14T09:49:05.698Z,67.10
2018-02-14T09:51:34.382Z,67.10
2018-02-14T09:54:01.981Z,67.10
2018-02-14T09:56:29.612Z,67.10
2018-02-14T09:58:57.168Z,67.10
2018-02-14T10:01:24.754Z,67.00
2018-02-14T10:03:52.319Z,67.00
2018-02-14T10:06:19.874Z,67.00
2018-02-14T10:08:48.251Z,67.00
2018-02-14T10:11:15.851Z,67.00
2018-02-14T10:13:43.963Z,66.90
2018-02-14T10:16:11.710Z,66.90
2018-02-14T10:18:39.313Z,66.90
2018-02-14T10:21:06.878Z,66.90
2018-02-14T10:23:35.225Z,67.00
2018-02-14T10:26:02.855Z,67.00
2018-02-14T10:28:30.430Z,67.00
2018-02-14T10:30:58.011Z,67.00
2018-02-14T10:33:25.591Z,67.00
2018-02-14T10:35:53.154Z,67.00
2018-02-14T10:38:20.738Z,67.10
2018-02-14T10:40:48.345Z,67.00
2018-02-14T10:43:15.932Z,67.00
2018-02-14T10:45:43.506Z,67.00
2018-02-14T10:48:11.088Z,67.90
2018-02-14T10:50:38.657Z,67.10
2018-02-14T10:53:06.267Z,67.20
2018-02-14T10:55:33.833Z,67.20
2018-02-14T10:58:01.401Z,67.30
2018-02-14T11:00:34.471Z,67.30
2018-02-14T11:03:07.608Z,67.30
2018-02-14T11:05:35.199Z,67.30
2018-02-14T11:08:03.541Z,67.40
2018-02-14T11:10:31.104Z,67.30
2018-02-14T11:12:58.676Z,67.30
2018-02-14T11:15:26.269Z,67.40
2018-02-14T11:17:54.603Z,67.40
2018-02-14T11:20:22.173Z,67.40
2018-02-14T11:22:49.733Z,67.40
2018-02-14T11:25:17.301Z,67.40
2018-02-14T11:27:44.877Z,67.40
2018-02-14T11:30:12.509Z,67.40
2018-02-14T11:32:40.894Z,67.50
2018-02-14T11:35:08.563Z,67.40
2018-02-14T11:37:36.216Z,67.50
2018-02-14T11:40:04.572Z,67.50
2018-02-14T11:42:32.144Z,67.50
2018-02-14T11:45:01.647Z,67.60
2018-02-14T11:47:31.159Z,67.60
2018-02-14T11:50:00.532Z,67.60
2018-02-14T11:52:28.098Z,67.60
2018-02-14T11:54:55.674Z,67.60
2018-02-14T11:57:23.242Z,67.40
2018-02-14T11:59:51.734Z,67.60
2018-02-14T12:02:20.068Z,67.60
2018-02-14T12:04:47.637Z,67.50
2018-02-14T12:07:15.209Z,67.60
2018-02-14T12:09:42.891Z,67.40
2018-02-14T12:12:11.261Z,67.60
2018-02-14T12:14:38.927Z,67.40
2018-02-14T12:17:07.275Z,67.40
2018-02-14T12:19:34.869Z,67.60
2018-02-14T12:22:03.215Z,67.60
2018-02-14T12:24:30.844Z,67.50
2018-02-14T12:26:59.199Z,67.40
2018-02-14T12:29:27.571Z,67.40
2018-02-14T12:31:55.928Z,67.60
2018-02-14T12:34:23.508Z,67.40
2018-02-14T12:36:51.898Z,67.60
2018-02-14T12:39:19.565Z,67.40
2018-02-14T12:41:47.180Z,67.60
2018-02-14T12:44:14.743Z,67.40
2018-02-14T12:46:42.330Z,67.40
2018-02-14T12:49:10.719Z,67.60
2018-02-14T12:51:39.070Z,67.40
2018-02-14T12:54:07.416Z,67.50
2018-02-14T12:56:35.027Z,67.60
2018-02-14T12:59:03.378Z,67.50
2018-02-14T13:01:30.947Z,67.40
2018-02-14T13:03:59.202Z,67.30
2018-02-14T13:06:26.780Z,67.50
2018-02-14T13:08:54.358Z,67.40
2018-02-14T13:11:22.696Z,67.40
2018-02-14T13:13:50.262Z,67.40
2018-02-14T13:16:17.877Z,67.50
2018-02-14T13:18:46.256Z,67.50
2018-02-14T13:21:14.600Z,67.40
2018-02-14T13:23:42.191Z,67.30
2018-02-14T13:26:10.534Z,67.40
2018-02-14T13:28:38.128Z,67.30
2018-02-14T13:31:06.468Z,67.50
2018-02-14T13:33:34.049Z,67.40
2018-02-14T13:36:01.624Z,67.40
2018-02-14T13:38:30.563Z,67.50
2018-02-14T13:40:58.183Z,67.40
2018-02-14T13:43:26.563Z,67.40
2018-02-14T13:45:54.912Z,67.40
2018-02-14T13:48:22.477Z,67.40
2018-02-14T13:50:50.175Z,67.40
2018-02-14T13:53:18.512Z,67.40
2018-02-14T13:55:46.081Z,67.40
2018-02-14T13:58:13.655Z,67.40
2018-02-14T14:00:41.329Z,67.40
2018-02-14T14:03:09.720Z,67.40
2018-02-14T14:05:38.093Z,67.40
2018-02-14T14:08:06.441Z,67.40
2018-02-14T14:10:34.026Z,67.40
2018-02-14T14:13:02.380Z,68.20
2018-02-14T14:15:31.191Z,67.40
2018-02-14T14:17:59.256Z,67.40
2018-02-14T14:20:26.833Z,67.50
2018-02-14T14:22:55.530Z,67.60
2018-02-14T14:25:23.886Z,67.50
2018-02-14T14:27:51.480Z,67.50
2018-02-14T14:30:19.063Z,68.00
2018-02-14T14:32:46.690Z,67.60
2018-02-14T14:35:15.060Z,67.60
2018-02-14T14:37:43.443Z,67.60
2018-02-14T14:40:11.790Z,67.60
2018-02-14T14:42:39.369Z,68.60
2018-02-14T14:45:06.956Z,67.60
2018-02-14T14:47:34.622Z,68.00
2018-02-14T14:50:03.093Z,67.70
2018-02-14T14:52:31.608Z,68.70
2018-02-14T14:54:59.312Z,68.70
2018-02-14T14:57:26.897Z,67.70
2018-02-14T14:59:55.257Z,69.60
2018-02-14T15:02:22.940Z,68.80
2018-02-14T15:04:51.281Z,68.80
2018-02-14T15:07:18.872Z,68.80
2018-02-14T15:09:47.215Z,68.90
2018-02-14T15:12:14.806Z,68.80
2018-02-14T15:14:42.474Z,68.80
2018-02-14T15:17:10.812Z,69.00
2018-02-14T15:19:38.440Z,69.70
2018-02-14T15:22:06.852Z,69.00
2018-02-14T15:24:34.430Z,69.00
2018-02-14T15:27:02.013Z,69.00
2018-02-14T15:29:30.881Z,69.60
2018-02-14T15:31:58.442Z,69.00
2018-02-14T15:34:26.014Z,69.00
2018-02-14T15:36:53.596Z,69.00
2018-02-14T15:39:22.023Z,69.10
2018-02-14T15:41:49.792Z,69.00
2018-02-14T15:44:17.455Z,69.10
2018-02-14T15:46:45.026Z,69.00
2018-02-14T15:49:12.608Z,69.10
2018-02-14T15:51:40.292Z,69.00
2018-02-14T15:54:08.668Z,69.10
2018-02-14T15:56:37.012Z,69.20
2018-02-14T15:59:04.602Z,69.10
2018-02-14T16:01:33.035Z,69.10
2018-02-14T16:04:01.755Z,69.10
2018-02-14T16:06:30.433Z,69.10
2018-02-14T16:08:58.067Z,69.10
2018-02-14T16:11:25.637Z,69.20
2018-02-14T16:13:53.213Z,69.20
2018-02-14T16:16:20.812Z,69.20
2018-02-14T16:18:49.188Z,69.20
2018-02-14T16:21:17.559Z,69.10
2018-02-14T16:23:45.966Z,69.30
2018-02-14T16:26:13.531Z,69.20
2018-02-14T16:28:41.105Z,69.30
2018-02-14T16:31:08.692Z,69.20
2018-02-14T16:33:36.270Z,69.20
2018-02-14T16:36:03.956Z,69.20
2018-02-14T16:38:32.332Z,69.30
2018-02-14T16:41:01.636Z,69.30
2018-02-14T16:43:30.705Z,69.30
2018-02-14T16:45:59.220Z,69.30
2018-02-14T16:48:26.864Z,69.30
2018-02-14T16:50:55.572Z,69.40
2018-02-14T16:56:52.726Z,69.30
2018-02-14T16:59:20.408Z,69.30
2018-02-14T17:01:48.074Z,69.40
2018-02-14T17:04:15.742Z,69.30
2018-02-14T17:06:43.322Z,69.30
2018-02-14T17:09:10.910Z,69.30
2018-02-14T17:11:38.498Z,66.00
2018-02-14T17:14:06.130Z,63.00
2018-02-14T17:16:33.790Z,62.30
2018-02-14T17:19:01.394Z,61.30
2018-02-14T17:21:29.755Z,60.20
2018-02-14T17:23:57.342Z,60.20
2018-02-14T17:26:25.683Z,59.60
2018-02-14T17:28:53.382Z,59.50
2018-02-14T17:31:21.773Z,59.00
2018-02-14T17:33:49.409Z,58.90
2018-02-14T17:36:17.066Z,58.80
2018-02-14T17:38:44.650Z,58.50
2018-02-14T17:41:13.017Z,58.10
2018-02-14T17:43:41.431Z,58.20
2018-02-14T17:46:09.753Z,58.00
2018-02-14T17:48:37.337Z,58.00
2018-02-14T17:51:05.696Z,57.70
2018-02-14T17:53:33.388Z,57.70
2018-02-14T17:56:01.731Z,57.70
2018-02-14T17:58:30.612Z,57.70
2018-02-14T18:00:58.461Z,57.60
2018-02-14T18:03:27.149Z,57.50
2018-02-14T18:05:56.039Z,57.50
2018-02-14T18:08:23.664Z,57.50
2018-02-14T18:10:52.006Z,57.50
2018-02-14T18:13:19.590Z,57.50
2018-02-14T18:15:47.173Z,57.40
2018-02-14T18:18:15.043Z,57.90
2018-02-14T18:20:42.842Z,57.30
2018-02-14T18:23:10.706Z,57.20
2018-02-14T18:25:38.366Z,57.30
2018-02-14T18:28:06.103Z,57.40
2018-02-14T18:30:33.968Z,57.30
2018-02-14T18:33:01.837Z,57.40
2018-02-14T18:35:30.880Z,57.30
2018-02-14T18:38:01.257Z,57.40
2018-02-14T18:40:30.558Z,57.10
2018-02-14T18:42:59.658Z,57.30
2018-02-14T18:45:27.421Z,57.30
2018-02-14T18:47:55.289Z,57.30
2018-02-14T18:50:23.112Z,57.30
2018-02-14T18:52:51.126Z,57.40
2018-02-14T18:55:18.995Z,58.00
2018-02-14T18:57:46.760Z,57.40
2018-02-14T19:00:14.632Z,57.40
2018-02-14T19:02:42.352Z,57.40
2018-02-14T19:05:10.980Z,57.60
2018-02-14T19:07:38.673Z,57.20
2018-02-14T19:10:06.611Z,57.30
2018-02-14T19:12:34.479Z,58.00
2018-02-14T19:15:02.125Z,58.80
2018-02-14T19:17:31.646Z,60.30
2018-02-14T19:20:00.660Z,61.20
2018-02-14T19:22:28.305Z,61.10
2018-02-14T19:24:56.654Z,62.50
2018-02-14T19:27:24.346Z,62.50
2018-02-14T19:29:52.004Z,63.10
2018-02-14T19:32:20.347Z,64.10
2018-02-14T19:34:47.929Z,64.10
2018-02-14T19:37:15.590Z,64.60
2018-02-14T19:39:43.945Z,65.20
2018-02-14T19:42:11.527Z,65.20
2018-02-14T19:44:39.917Z,65.70
2018-02-14T19:47:08.336Z,66.00
2018-02-14T19:49:35.937Z,66.00
2018-02-14T19:52:03.525Z,66.30
2018-02-14T19:54:31.241Z,66.40
2018-02-14T19:57:00.163Z,66.60
2018-02-14T19:59:28.006Z,66.70
2018-02-14T20:01:55.680Z,66.90
2018-02-14T20:04:23.301Z,67.00
2018-02-14T20:06:50.933Z,67.20
2018-02-14T20:09:19.330Z,67.40
2018-02-14T20:11:46.921Z,67.40
2018-02-14T20:14:14.590Z,67.50
2018-02-14T20:16:42.178Z,67.60
2018-02-14T20:19:09.758Z,67.60
2018-02-14T20:21:38.104Z,67.70
2018-02-14T20:24:05.696Z,67.60
2018-02-14T20:26:34.067Z,67.70
2018-02-14T20:29:01.658Z,67.70
2018-02-14T20:31:30.778Z,67.80
2018-02-14T20:33:58.400Z,67.80
2018-02-14T20:36:26.768Z,67.90
2018-02-14T20:38:54.350Z,67.90
2018-02-14T20:41:21.965Z,67.90
2018-02-14T20:43:49.675Z,67.90
2018-02-14T20:46:17.273Z,67.90
2018-02-14T20:48:45.152Z,67.90
2018-02-14T20:51:12.742Z,67.90
2018-02-14T20:53:40.422Z,67.90
2018-02-14T20:56:09.341Z,68.10
2018-02-14T20:58:36.969Z,68.10
2018-02-14T21:01:05.377Z,68.00
2018-02-14T21:03:33.071Z,68.00
2018-02-14T21:06:01.372Z,68.00
2018-02-14T21:08:30.069Z,68.00
2018-02-14T21:10:57.640Z,68.00
2018-02-14T21:13:26.038Z,68.20
2018-02-14T21:15:54.561Z,68.10
2018-02-14T21:18:24.101Z,68.20
2018-02-14T21:20:51.689Z,68.00
2018-02-14T21:23:19.323Z,68.10
2018-02-14T21:25:46.998Z,68.10
2018-02-14T21:28:15.420Z,68.20
2018-02-14T21:30:42.997Z,68.20
2018-02-14T21:33:10.589Z,68.10
2018-02-14T21:35:38.175Z,68.10
2018-02-14T21:38:05.828Z,68.20
2018-02-14T21:42:00.550Z,69.30
2018-02-14T21:44:28.425Z,69.20
2018-02-14T21:46:56.068Z,69.20
2018-02-14T21:49:24.454Z,69.30
2018-02-14T21:51:52.028Z,69.30
2018-02-14T21:54:19.607Z,69.30
2018-02-14T21:56:47.252Z,69.30
2018-02-14T21:59:14.876Z,69.30
2018-02-14T22:01:42.469Z,69.20
2018-02-14T22:04:10.042Z,69.20
2018-02-14T22:06:37.676Z,69.30
2018-02-14T22:09:06.014Z,69.40
2018-02-14T22:11:34.450Z,69.40
2018-02-14T22:14:02.072Z,69.30
2018-02-14T22:16:30.629Z,69.40
2018-02-14T22:18:58.268Z,69.40
2018-02-14T22:21:25.881Z,69.30
2018-02-14T22:23:53.459Z,69.30
2018-02-14T22:26:21.102Z,69.30
2018-02-14T22:28:48.684Z,69.40
2018-02-14T22:31:16.270Z,69.40
2018-02-14T22:33:43.879Z,69.30
2018-02-14T22:36:11.526Z,69.30
2018-02-14T22:38:39.237Z,69.30
2018-02-14T22:41:06.852Z,69.30
2018-02-14T22:43:34.437Z,69.30
2018-02-14T22:46:02.024Z,69.30
2018-02-14T22:48:30.675Z,69.30
2018-02-14T22:50:58.421Z,69.30
2018-02-14T22:53:25.999Z,69.30
2018-02-14T22:55:53.764Z,69.40
2018-02-14T22:58:21.353Z,69.20
2018-02-14T23:00:49.734Z,69.40
2018-02-14T23:03:18.103Z,69.30
2018-02-14T23:05:46.488Z,69.40
2018-02-14T23:08:14.873Z,69.40
2018-02-14T23:10:43.244Z,69.30
2018-02-14T23:13:11.595Z,69.40
2018-02-14T23:15:39.188Z,69.30
2018-02-14T23:18:07.642Z,69.30
2018-02-14T23:20:35.364Z,69.30
2018-02-14T23:23:02.932Z,69.30
2018-02-14T23:25:31.384Z,69.30
2018-02-14T23:27:59.717Z,69.30
2018-02-14T23:30:27.320Z,69.30
2018-02-14T23:32:54.927Z,69.40
2018-02-14T23:35:22.526Z,69.40
2018-02-14T23:37:50.927Z,69.30
2018-02-14T23:40:18.579Z,69.20
2018-02-14T23:42:46.934Z,69.30
2018-02-14T23:45:14.553Z,69.30
2018-02-14T23:47:42.181Z,69.20
2018-02-14T23:50:10.546Z,69.30
2018-02-14T23:52:38.225Z,69.30
2018-02-14T23:55:05.900Z,69.30
2018-02-14T23:57:33.502Z,69.30
